sensor_id;sensor_type;location;lat;lon;timestamp;P1;P2;P0
78512;PMS5003;67809;55.034;73.462;2023-07-20T00:01:47;32.00;28.00;19.25
78512;PMS5003;67809;55.034;73.462;2023-07-20T00:04:13;33.00;28.00;20.00
78512;PMS5003;67809;55.034;73.462;2023-07-20T00:06:40;32.75;27.00;18.25
78512;PMS5003;67809;55.034;73.462;2023-07-20T00:09:06;28.00;25.00;17.25
78512;PMS5003;67809;55.034;73.462;2023-07-20T00:11:35;27.50;24.00;17.00
78512;PMS5003;67809;55.034;73.462;2023-07-20T00:14:01;29.00;25.00;17.00
78512;PMS5003;67809;55.034;73.462;2023-07-20T00:16:27;35.00;30.00;20.00
78512;PMS5003;67809;55.034;73.462;2023-07-20T00:18:53;32.00;27.00;19.00
78512;PMS5003;67809;55.034;73.462;2023-07-20T00:21:19;31.25;26.50;17.00
78512;PMS5003;67809;55.034;73.462;2023-07-20T00:23:45;29.75;26.00;18.00
78512;PMS5003;67809;55.034;73.462;2023-07-20T00:26:11;32.00;28.00;18.00
78512;PMS5003;67809;55.034;73.462;2023-07-20T00:28:37;31.00;26.25;18.00
78512;PMS5003;67809;55.034;73.462;2023-07-20T00:31:04;34.00;29.00;19.00
78512;PMS5003;67809;55.034;73.462;2023-07-20T00:33:30;32.00;27.75;19.00
78512;PMS5003;67809;55.034;73.462;2023-07-20T00:35:56;30.00;26.00;18.00
78512;PMS5003;67809;55.034;73.462;2023-07-20T00:38:22;31.00;27.00;18.00
78512;PMS5003;67809;55.034;73.462;2023-07-20T00:40:48;31.75;26.75;19.00
78512;PMS5003;67809;55.034;73.462;2023-07-20T00:43:17;35.00;29.00;20.00
78512;PMS5003;67809;55.034;73.462;2023-07-20T00:45:43;33.00;26.67;19.00
78512;PMS5003;67809;55.034;73.462;2023-07-20T00:48:10;30.00;26.00;17.75
78512;PMS5003;67809;55.034;73.462;2023-07-20T00:50:36;29.00;25.00;17.00
78512;PMS5003;67809;55.034;73.462;2023-07-20T00:53:03;30.00;25.75;18.00
78512;PMS5003;67809;55.034;73.462;2023-07-20T00:55:32;32.00;27.00;18.00
78512;PMS5003;67809;55.034;73.462;2023-07-20T00:57:59;30.00;27.00;18.00
78512;PMS5003;67809;55.034;73.462;2023-07-20T01:00:25;29.00;25.00;17.75
78512;PMS5003;67809;55.034;73.462;2023-07-20T01:02:51;32.50;28.00;19.00
78512;PMS5003;67809;55.034;73.462;2023-07-20T01:05:17;34.33;28.67;20.00
78512;PMS5003;67809;55.034;73.462;2023-07-20T01:10:18;29.00;25.00;17.00
78512;PMS5003;67809;55.034;73.462;2023-07-20T01:12:47;29.75;25.50;17.50
78512;PMS5003;67809;55.034;73.462;2023-07-20T01:15:13;26.67;24.00;16.00
78512;PMS5003;67809;55.034;73.462;2023-07-20T01:17:39;25.75;23.00;16.00
78512;PMS5003;67809;55.034;73.462;2023-07-20T01:20:08;28.00;24.00;16.00
78512;PMS5003;67809;55.034;73.462;2023-07-20T01:22:57;25.75;24.00;17.00
78512;PMS5003;67809;55.034;73.462;2023-07-20T01:33:09;32.25;28.00;18.50
78512;PMS5003;67809;55.034;73.462;2023-07-20T01:35:37;29.00;25.00;17.25
78512;PMS5003;67809;55.034;73.462;2023-07-20T01:38:04;30.75;26.75;18.00
78512;PMS5003;67809;55.034;73.462;2023-07-20T01:40:30;30.50;26.00;18.00
78512;PMS5003;67809;55.034;73.462;2023-07-20T01:42:57;27.25;23.50;16.00
78512;PMS5003;67809;55.034;73.462;2023-07-20T01:45:23;29.00;26.00;18.00
78512;PMS5003;67809;55.034;73.462;2023-07-20T01:47:49;27.50;23.75;16.75
78512;PMS5003;67809;55.034;73.462;2023-07-20T01:50:15;29.00;25.00;17.00
78512;PMS5003;67809;55.034;73.462;2023-07-20T01:52:41;32.00;27.00;19.00
78512;PMS5003;67809;55.034;73.462;2023-07-20T01:55:07;35.00;29.00;20.00
78512;PMS5003;67809;55.034;73.462;2023-07-20T01:57:33;32.67;27.00;18.67
78512;PMS5003;67809;55.034;73.462;2023-07-20T01:59:59;33.00;29.00;20.00
78512;PMS5003;67809;55.034;73.462;2023-07-20T02:02:26;32.50;27.00;18.00
78512;PMS5003;67809;55.034;73.462;2023-07-20T02:04:52;32.00;28.00;20.00
78512;PMS5003;67809;55.034;73.462;2023-07-20T02:07:20;34.00;29.00;19.75
78512;PMS5003;67809;55.034;73.462;2023-07-20T02:09:46;33.00;28.00;20.00
78512;PMS5003;67809;55.034;73.462;2023-07-20T02:12:13;33.25;28.50;19.00
78512;PMS5003;67809;55.034;73.462;2023-07-20T02:14:39;32.50;27.75;18.25
78512;PMS5003;67809;55.034;73.462;2023-07-20T02:17:05;32.67;28.00;18.00
78512;PMS5003;67809;55.034;73.462;2023-07-20T02:19:31;35.00;30.00;20.00
78512;PMS5003;67809;55.034;73.462;2023-07-20T02:21:57;35.00;30.00;20.00
78512;PMS5003;67809;55.034;73.462;2023-07-20T02:24:24;31.75;27.25;18.50
78512;PMS5003;67809;55.034;73.462;2023-07-20T02:26:51;31.00;27.00;19.00
78512;PMS5003;67809;55.034;73.462;2023-07-20T02:29:17;30.75;26.00;18.00
78512;PMS5003;67809;55.034;73.462;2023-07-20T02:31:43;28.00;24.25;16.75
78512;PMS5003;67809;55.034;73.462;2023-07-20T02:34:09;32.00;28.00;20.00
78512;PMS5003;67809;55.034;73.462;2023-07-20T02:36:35;29.00;25.00;18.00
78512;PMS5003;67809;55.034;73.462;2023-07-20T02:39:01;26.00;23.25;17.00
78512;PMS5003;67809;55.034;73.462;2023-07-20T02:41:30;32.50;27.00;18.00
78512;PMS5003;67809;55.034;73.462;2023-07-20T02:43:56;28.00;25.00;18.00
78512;PMS5003;67809;55.034;73.462;2023-07-20T02:46:23;33.00;29.00;20.00
78512;PMS5003;67809;55.034;73.462;2023-07-20T02:48:49;33.00;28.00;20.00
78512;PMS5003;67809;55.034;73.462;2023-07-20T02:51:15;28.50;25.25;18.00
78512;PMS5003;67809;55.034;73.462;2023-07-20T02:53:41;30.50;26.25;18.00
78512;PMS5003;67809;55.034;73.462;2023-07-20T02:56:07;33.50;28.25;19.00
78512;PMS5003;67809;55.034;73.462;2023-07-20T02:58:34;33.00;29.00;20.00
78512;PMS5003;67809;55.034;73.462;2023-07-20T03:01:03;32.50;28.00;19.50
78512;PMS5003;67809;55.034;73.462;2023-07-20T03:03:29;31.00;27.00;19.00
78512;PMS5003;67809;55.034;73.462;2023-07-20T03:05:55;32.00;26.50;18.25
78512;PMS5003;67809;55.034;73.462;2023-07-20T03:08:23;27.25;24.75;17.00
78512;PMS5003;67809;55.034;73.462;2023-07-20T03:10:50;29.75;25.00;18.00
78512;PMS5003;67809;55.034;73.462;2023-07-20T03:13:16;25.00;22.00;15.00
78512;PMS5003;67809;55.034;73.462;2023-07-20T03:15:42;29.00;25.00;18.00
78512;PMS5003;67809;55.034;73.462;2023-07-20T03:18:20;32.00;27.00;19.00
78512;PMS5003;67809;55.034;73.462;2023-07-20T03:20:46;29.00;25.00;17.25
78512;PMS5003;67809;55.034;73.462;2023-07-20T03:23:13;22.75;21.00;15.25
78512;PMS5003;67809;55.034;73.462;2023-07-20T03:25:39;27.00;24.00;16.50
78512;PMS5003;67809;55.034;73.462;2023-07-20T03:28:06;23.00;21.00;15.00
78512;PMS5003;67809;55.034;73.462;2023-07-20T03:30:34;21.00;19.00;14.00
78512;PMS5003;67809;55.034;73.462;2023-07-20T03:33:00;23.50;21.25;15.75
78512;PMS5003;67809;55.034;73.462;2023-07-20T03:35:26;23.75;22.00;15.00
78512;PMS5003;67809;55.034;73.462;2023-07-20T03:37:52;25.00;22.33;16.00
78512;PMS5003;67809;55.034;73.462;2023-07-20T03:40:18;22.00;20.00;14.00
78512;PMS5003;67809;55.034;73.462;2023-07-20T03:42:44;21.00;18.00;12.75
78512;PMS5003;67809;55.034;73.462;2023-07-20T03:45:10;21.00;18.50;12.00
78512;PMS5003;67809;55.034;73.462;2023-07-20T03:47:36;21.00;19.00;13.00
78512;PMS5003;67809;55.034;73.462;2023-07-20T03:50:02;17.00;16.00;11.00
78512;PMS5003;67809;55.034;73.462;2023-07-20T03:52:31;20.50;18.00;13.00
78512;PMS5003;67809;55.034;73.462;2023-07-20T03:54:57;22.25;20.00;15.00
78512;PMS5003;67809;55.034;73.462;2023-07-20T03:57:23;19.33;17.67;13.00
78512;PMS5003;67809;55.034;73.462;2023-07-20T03:59:49;21.25;18.75;14.00
78512;PMS5003;67809;55.034;73.462;2023-07-20T04:02:15;19.00;17.50;12.00
78512;PMS5003;67809;55.034;73.462;2023-07-20T04:04:42;20.00;17.00;11.00
78512;PMS5003;67809;55.034;73.462;2023-07-20T04:07:09;18.00;15.00;11.00
78512;PMS5003;67809;55.034;73.462;2023-07-20T04:09:36;17.25;15.00;11.00
78512;PMS5003;67809;55.034;73.462;2023-07-20T04:12:02;17.00;16.00;12.00
78512;PMS5003;67809;55.034;73.462;2023-07-20T04:14:28;17.50;16.00;11.00
78512;PMS5003;67809;55.034;73.462;2023-07-20T04:16:54;16.00;14.00;10.00
78512;PMS5003;67809;55.034;73.462;2023-07-20T04:19:20;17.00;15.50;11.00
78512;PMS5003;67809;55.034;73.462;2023-07-20T04:21:46;19.00;16.75;12.00
78512;PMS5003;67809;55.034;73.462;2023-07-20T04:24:13;18.00;16.00;12.00
78512;PMS5003;67809;55.034;73.462;2023-07-20T04:26:39;19.00;16.00;11.00
78512;PMS5003;67809;55.034;73.462;2023-07-20T04:29:05;16.00;15.00;11.00
78512;PMS5003;67809;55.034;73.462;2023-07-20T04:31:37;15.00;13.75;9.50
78512;PMS5003;67809;55.034;73.462;2023-07-20T04:34:03;16.00;15.00;11.00
78512;PMS5003;67809;55.034;73.462;2023-07-20T04:36:30;19.50;17.75;12.25
78512;PMS5003;67809;55.034;73.462;2023-07-20T04:38:56;21.00;19.00;15.00
78512;PMS5003;67809;55.034;73.462;2023-07-20T04:41:22;17.00;15.50;11.00
78512;PMS5003;67809;55.034;73.462;2023-07-20T04:43:52;15.75;14.50;10.00
78512;PMS5003;67809;55.034;73.462;2023-07-20T04:46:26;15.00;14.00;11.00
78512;PMS5003;67809;55.034;73.462;2023-07-20T04:48:52;18.00;15.33;10.00
78512;PMS5003;67809;55.034;73.462;2023-07-20T04:51:19;14.00;13.00;10.00
78512;PMS5003;67809;55.034;73.462;2023-07-20T04:53:49;14.25;13.00;9.00
78512;PMS5003;67809;55.034;73.462;2023-07-20T04:56:15;14.00;13.00;10.00
78512;PMS5003;67809;55.034;73.462;2023-07-20T04:58:41;14.67;14.00;10.00
78512;PMS5003;67809;55.034;73.462;2023-07-20T05:01:09;15.00;13.00;9.00
78512;PMS5003;67809;55.034;73.462;2023-07-20T05:03:36;12.00;11.25;9.00
78512;PMS5003;67809;55.034;73.462;2023-07-20T05:06:06;13.00;11.00;8.00
78512;PMS5003;67809;55.034;73.462;2023-07-20T05:08:36;14.00;12.50;9.00
78512;PMS5003;67809;55.034;73.462;2023-07-20T05:11:02;14.00;12.00;9.00
78512;PMS5003;67809;55.034;73.462;2023-07-20T05:13:28;12.00;11.00;8.00
78512;PMS5003;67809;55.034;73.462;2023-07-20T05:15:55;14.00;12.25;9.00
78512;PMS5003;67809;55.034;73.462;2023-07-20T05:18:21;15.00;13.00;9.00
78512;PMS5003;67809;55.034;73.462;2023-07-20T05:20:49;14.00;13.00;10.00
78512;PMS5003;67809;55.034;73.462;2023-07-20T05:23:17;16.00;14.00;10.00
78512;PMS5003;67809;55.034;73.462;2023-07-20T05:25:45;13.50;12.00;9.00
78512;PMS5003;67809;55.034;73.462;2023-07-20T05:28:11;13.00;11.00;8.00
78512;PMS5003;67809;55.034;73.462;2023-07-20T05:30:37;12.00;11.00;8.00
78512;PMS5003;67809;55.034;73.462;2023-07-20T05:33:03;14.00;12.00;8.50
78512;PMS5003;67809;55.034;73.462;2023-07-20T05:35:29;10.75;9.00;6.00
78512;PMS5003;67809;55.034;73.462;2023-07-20T05:37:55;12.00;11.00;8.00
78512;PMS5003;67809;55.034;73.462;2023-07-20T05:40:21;12.25;12.00;9.00
78512;PMS5003;67809;55.034;73.462;2023-07-20T05:42:48;12.75;10.75;8.00
78512;PMS5003;67809;55.034;73.462;2023-07-20T05:45:17;11.00;10.00;7.00
78512;PMS5003;67809;55.034;73.462;2023-07-20T05:47:44;11.75;10.00;8.00
78512;PMS5003;67809;55.034;73.462;2023-07-20T05:50:10;11.50;10.50;7.25
78512;PMS5003;67809;55.034;73.462;2023-07-20T05:52:36;11.00;10.00;8.00
78512;PMS5003;67809;55.034;73.462;2023-07-20T05:55:05;11.00;9.25;6.25
78512;PMS5003;67809;55.034;73.462;2023-07-20T05:57:31;12.80;11.00;7.80
78512;PMS5003;67809;55.034;73.462;2023-07-20T05:59:57;9.00;8.00;6.00
78512;PMS5003;67809;55.034;73.462;2023-07-20T06:02:23;10.00;9.00;7.00
78512;PMS5003;67809;55.034;73.462;2023-07-20T06:04:49;10.00;9.25;7.00
78512;PMS5003;67809;55.034;73.462;2023-07-20T06:07:15;12.00;11.00;8.00
78512;PMS5003;67809;55.034;73.462;2023-07-20T06:09:41;12.00;11.00;8.00
78512;PMS5003;67809;55.034;73.462;2023-07-20T06:12:07;12.00;10.50;8.00
78512;PMS5003;67809;55.034;73.462;2023-07-20T06:14:34;14.75;13.50;9.50
78512;PMS5003;67809;55.034;73.462;2023-07-20T06:17:00;21.50;19.00;13.75
78512;PMS5003;67809;55.034;73.462;2023-07-20T06:19:26;10.00;9.00;7.00
78512;PMS5003;67809;55.034;73.462;2023-07-20T06:21:52;10.00;9.00;7.00
78512;PMS5003;67809;55.034;73.462;2023-07-20T06:24:18;10.00;9.00;7.00
78512;PMS5003;67809;55.034;73.462;2023-07-20T06:26:44;9.25;9.00;7.00
78512;PMS5003;67809;55.034;73.462;2023-07-20T06:29:10;7.67;7.00;5.00
78512;PMS5003;67809;55.034;73.462;2023-07-20T06:31:36;12.00;11.00;7.00
78512;PMS5003;67809;55.034;73.462;2023-07-20T06:34:03;11.75;10.00;7.00
78512;PMS5003;67809;55.034;73.462;2023-07-20T06:36:29;9.00;8.00;5.50
78512;PMS5003;67809;55.034;73.462;2023-07-20T06:38:55;9.00;9.00;7.00
78512;PMS5003;67809;55.034;73.462;2023-07-20T06:41:21;8.00;7.50;6.00
78512;PMS5003;67809;55.034;73.462;2023-07-20T06:43:47;7.00;6.25;5.00
78512;PMS5003;67809;55.034;73.462;2023-07-20T06:46:14;9.00;8.00;5.75
78512;PMS5003;67809;55.034;73.462;2023-07-20T06:48:40;9.00;8.00;6.00
78512;PMS5003;67809;55.034;73.462;2023-07-20T06:51:06;9.00;9.00;6.75
78512;PMS5003;67809;55.034;73.462;2023-07-20T06:53:32;9.00;8.00;6.25
78512;PMS5003;67809;55.034;73.462;2023-07-20T06:55:58;13.75;10.75;7.00
78512;PMS5003;67809;55.034;73.462;2023-07-20T06:58:24;8.33;7.33;6.00
78512;PMS5003;67809;55.034;73.462;2023-07-20T07:00:51;11.00;9.00;7.00
78512;PMS5003;67809;55.034;73.462;2023-07-20T07:03:17;10.00;9.00;7.00
78512;PMS5003;67809;55.034;73.462;2023-07-20T07:05:43;8.00;8.00;6.00
78512;PMS5003;67809;55.034;73.462;2023-07-20T07:08:11;13.00;11.00;8.00
78512;PMS5003;67809;55.034;73.462;2023-07-20T07:10:37;17.50;15.75;10.75
78512;PMS5003;67809;55.034;73.462;2023-07-20T07:13:09;8.75;8.50;6.00
78512;PMS5003;67809;55.034;73.462;2023-07-20T07:15:35;13.00;11.00;7.00
78512;PMS5003;67809;55.034;73.462;2023-07-20T07:18:01;11.00;10.75;8.00
78512;PMS5003;67809;55.034;73.462;2023-07-20T07:20:29;9.33;8.00;6.00
78512;PMS5003;67809;55.034;73.462;2023-07-20T07:22:55;7.00;6.50;5.00
78512;PMS5003;67809;55.034;73.462;2023-07-20T07:25:22;7.00;6.00;4.00
78512;PMS5003;67809;55.034;73.462;2023-07-20T07:27:48;9.00;7.00;6.00
78512;PMS5003;67809;55.034;73.462;2023-07-20T07:30:14;10.00;9.00;7.00
78512;PMS5003;67809;55.034;73.462;2023-07-20T07:32:41;8.00;7.00;6.00
78512;PMS5003;67809;55.034;73.462;2023-07-20T07:35:07;9.00;8.00;6.00
78512;PMS5003;67809;55.034;73.462;2023-07-20T07:37:33;10.00;9.00;6.00
78512;PMS5003;67809;55.034;73.462;2023-07-20T07:39:59;11.00;10.00;7.00
78512;PMS5003;67809;55.034;73.462;2023-07-20T07:42:25;9.00;8.75;6.00
78512;PMS5003;67809;55.034;73.462;2023-07-20T07:44:51;9.00;8.00;6.00
78512;PMS5003;67809;55.034;73.462;2023-07-20T07:47:17;15.75;14.00;9.00
78512;PMS5003;67809;55.034;73.462;2023-07-20T07:49:43;14.00;13.00;9.67
78512;PMS5003;67809;55.034;73.462;2023-07-20T07:52:13;8.00;7.25;6.00
78512;PMS5003;67809;55.034;73.462;2023-07-20T07:54:40;8.00;8.00;6.00
78512;PMS5003;67809;55.034;73.462;2023-07-20T07:57:08;7.50;7.00;5.00
78512;PMS5003;67809;55.034;73.462;2023-07-20T07:59:34;9.00;8.25;6.00
78512;PMS5003;67809;55.034;73.462;2023-07-20T08:02:05;8.00;8.00;6.00
78512;PMS5003;67809;55.034;73.462;2023-07-20T08:04:32;10.00;9.00;7.00
78512;PMS5003;67809;55.034;73.462;2023-07-20T08:06:59;9.00;8.00;6.00
78512;PMS5003;67809;55.034;73.462;2023-07-20T08:09:25;11.00;9.00;5.00
78512;PMS5003;67809;55.034;73.462;2023-07-20T08:11:51;6.75;6.50;5.00
78512;PMS5003;67809;55.034;73.462;2023-07-20T08:14:19;9.50;8.50;6.00
78512;PMS5003;67809;55.034;73.462;2023-07-20T08:16:45;7.00;6.25;5.00
78512;PMS5003;67809;55.034;73.462;2023-07-20T08:19:13;8.00;8.00;5.25
78512;PMS5003;67809;55.034;73.462;2023-07-20T08:21:39;7.00;7.00;6.00
78512;PMS5003;67809;55.034;73.462;2023-07-20T08:24:05;6.00;6.00;4.00
78512;PMS5003;67809;55.034;73.462;2023-07-20T08:26:31;10.00;9.00;6.00
78512;PMS5003;67809;55.034;73.462;2023-07-20T08:28:58;9.00;8.00;6.00
78512;PMS5003;67809;55.034;73.462;2023-07-20T08:31:24;8.00;7.00;5.00
78512;PMS5003;67809;55.034;73.462;2023-07-20T08:33:50;10.00;9.00;6.00
78512;PMS5003;67809;55.034;73.462;2023-07-20T08:36:16;10.75;9.75;6.75
78512;PMS5003;67809;55.034;73.462;2023-07-20T08:38:42;13.00;11.75;8.00
78512;PMS5003;67809;55.034;73.462;2023-07-20T08:41:08;10.00;9.00;7.00
78512;PMS5003;67809;55.034;73.462;2023-07-20T08:43:37;12.00;10.00;7.00
78512;PMS5003;67809;55.034;73.462;2023-07-20T08:46:25;11.00;10.00;6.00
78512;PMS5003;67809;55.034;73.462;2023-07-20T08:48:57;6.00;6.00;5.00
78512;PMS5003;67809;55.034;73.462;2023-07-20T08:51:24;7.00;6.25;5.00
78512;PMS5003;67809;55.034;73.462;2023-07-20T08:53:50;7.75;7.00;5.00
78512;PMS5003;67809;55.034;73.462;2023-07-20T08:56:16;7.00;7.00;5.00
78512;PMS5003;67809;55.034;73.462;2023-07-20T08:58:44;9.25;8.50;6.00
78512;PMS5003;67809;55.034;73.462;2023-07-20T09:01:13;8.00;7.00;5.00
78512;PMS5003;67809;55.034;73.462;2023-07-20T09:03:39;6.75;6.00;4.00
78512;PMS5003;67809;55.034;73.462;2023-07-20T09:06:06;5.00;5.00;4.00
78512;PMS5003;67809;55.034;73.462;2023-07-20T09:08:32;6.50;6.00;4.50
78512;PMS5003;67809;55.034;73.462;2023-07-20T09:10:59;9.00;8.00;6.00
78512;PMS5003;67809;55.034;73.462;2023-07-20T09:13:25;6.00;6.00;4.25
78512;PMS5003;67809;55.034;73.462;2023-07-20T09:15:55;7.00;6.00;4.50
78512;PMS5003;67809;55.034;73.462;2023-07-20T09:18:24;6.00;6.00;4.00
78512;PMS5003;67809;55.034;73.462;2023-07-20T09:20:51;5.00;5.00;4.00
78512;PMS5003;67809;55.034;73.462;2023-07-20T09:23:17;17.50;15.00;9.25
78512;PMS5003;67809;55.034;73.462;2023-07-20T09:25:43;13.75;13.25;8.75
78512;PMS5003;67809;55.034;73.462;2023-07-20T09:28:11;54.00;40.50;23.50
78512;PMS5003;67809;55.034;73.462;2023-07-20T09:30:37;33.50;26.50;16.25
78512;PMS5003;67809;55.034;73.462;2023-07-20T09:33:03;10.00;9.00;5.00
78512;PMS5003;67809;55.034;73.462;2023-07-20T09:35:29;30.75;24.00;13.25
78512;PMS5003;67809;55.034;73.462;2023-07-20T09:37:59;28.00;21.75;12.00
78512;PMS5003;67809;55.034;73.462;2023-07-20T09:40:26;13.00;12.00;8.50
78512;PMS5003;67809;55.034;73.462;2023-07-20T09:42:52;12.00;10.25;6.50
78512;PMS5003;67809;55.034;73.462;2023-07-20T09:45:19;8.00;7.00;5.00
78512;PMS5003;67809;55.034;73.462;2023-07-20T09:47:45;11.00;9.00;6.00
78512;PMS5003;67809;55.034;73.462;2023-07-20T09:50:11;7.67;7.00;5.00
78512;PMS5003;67809;55.034;73.462;2023-07-20T09:52:38;7.50;6.75;5.00
78512;PMS5003;67809;55.034;73.462;2023-07-20T09:55:08;10.75;9.75;6.00
78512;PMS5003;67809;55.034;73.462;2023-07-20T09:57:35;11.25;9.75;6.00
78512;PMS5003;67809;55.034;73.462;2023-07-20T10:00:04;9.00;8.50;6.00
78512;PMS5003;67809;55.034;73.462;2023-07-20T10:02:45;9.75;9.00;6.00
78512;PMS5003;67809;55.034;73.462;2023-07-20T10:05:14;10.00;9.00;5.00
78512;PMS5003;67809;55.034;73.462;2023-07-20T10:07:44;8.00;7.00;5.00
78512;PMS5003;67809;55.034;73.462;2023-07-20T10:10:13;8.00;6.67;5.00
78512;PMS5003;67809;55.034;73.462;2023-07-20T10:12:39;7.25;7.00;5.00
78512;PMS5003;67809;55.034;73.462;2023-07-20T10:15:29;9.00;9.00;6.50
78512;PMS5003;67809;55.034;73.462;2023-07-20T10:20:28;8.00;7.00;5.00
78512;PMS5003;67809;55.034;73.462;2023-07-20T10:22:54;7.75;7.00;5.00
78512;PMS5003;67809;55.034;73.462;2023-07-20T10:25:24;7.75;7.00;5.00
78512;PMS5003;67809;55.034;73.462;2023-07-20T10:27:50;7.75;7.00;5.00
78512;PMS5003;67809;55.034;73.462;2023-07-20T10:30:17;7.00;7.00;5.00
78512;PMS5003;67809;55.034;73.462;2023-07-20T10:32:44;8.50;8.00;5.00
78512;PMS5003;67809;55.034;73.462;2023-07-20T10:35:13;7.00;6.75;5.00
78512;PMS5003;67809;55.034;73.462;2023-07-20T10:37:46;8.00;8.00;6.00
78512;PMS5003;67809;55.034;73.462;2023-07-20T10:40:24;7.00;7.00;5.00
78512;PMS5003;67809;55.034;73.462;2023-07-20T10:42:50;8.00;7.00;5.00
78512;PMS5003;67809;55.034;73.462;2023-07-20T10:45:19;9.00;8.00;6.00
78512;PMS5003;67809;55.034;73.462;2023-07-20T10:47:45;8.00;7.25;5.00
78512;PMS5003;67809;55.034;73.462;2023-07-20T10:50:12;10.00;9.00;6.67
78512;PMS5003;67809;55.034;73.462;2023-07-20T10:52:41;9.00;8.00;6.00
78512;PMS5003;67809;55.034;73.462;2023-07-20T10:55:25;15.00;14.50;10.00
78512;PMS5003;67809;55.034;73.462;2023-07-20T10:58:07;10.50;9.50;6.75
78512;PMS5003;67809;55.034;73.462;2023-07-20T11:00:34;11.67;11.33;8.33
78512;PMS5003;67809;55.034;73.462;2023-07-20T11:03:00;14.00;13.00;9.00
78512;PMS5003;67809;55.034;73.462;2023-07-20T11:05:33;14.25;12.25;9.00
78512;PMS5003;67809;55.034;73.462;2023-07-20T11:08:03;10.25;9.00;6.00
78512;PMS5003;67809;55.034;73.462;2023-07-20T11:10:29;11.80;10.20;7.80
78512;PMS5003;67809;55.034;73.462;2023-07-20T11:18:13;11.00;9.00;6.00
78512;PMS5003;67809;55.034;73.462;2023-07-20T11:20:39;9.50;9.00;7.00
78512;PMS5003;67809;55.034;73.462;2023-07-20T11:23:11;9.00;8.00;6.00
78512;PMS5003;67809;55.034;73.462;2023-07-20T11:25:39;10.00;9.00;6.25
78512;PMS5003;67809;55.034;73.462;2023-07-20T11:28:09;9.00;8.25;5.00
78512;PMS5003;67809;55.034;73.462;2023-07-20T11:30:36;8.00;8.00;6.00
78512;PMS5003;67809;55.034;73.462;2023-07-20T11:33:03;6.00;5.75;5.00
78512;PMS5003;67809;55.034;73.462;2023-07-20T11:35:29;17.25;16.00;11.50
78512;PMS5003;67809;55.034;73.462;2023-07-20T11:37:55;19.75;18.75;13.00
78512;PMS5003;67809;55.034;73.462;2023-07-20T11:40:22;10.25;9.50;6.25
78512;PMS5003;67809;55.034;73.462;2023-07-20T11:42:48;9.00;9.00;6.00
78512;PMS5003;67809;55.034;73.462;2023-07-20T11:45:19;10.00;9.00;6.00
78512;PMS5003;67809;55.034;73.462;2023-07-20T11:47:45;9.00;8.00;7.00
78512;PMS5003;67809;55.034;73.462;2023-07-20T11:50:11;9.00;8.25;6.50
78512;PMS5003;67809;55.034;73.462;2023-07-20T11:52:40;9.00;8.75;6.00
78512;PMS5003;67809;55.034;73.462;2023-07-20T11:55:07;9.00;8.75;6.00
78512;PMS5003;67809;55.034;73.462;2023-07-20T11:57:33;9.50;8.00;5.25
78512;PMS5003;67809;55.034;73.462;2023-07-20T12:00:01;9.00;9.00;6.00
78512;PMS5003;67809;55.034;73.462;2023-07-20T12:02:37;10.00;9.00;6.00
78512;PMS5003;67809;55.034;73.462;2023-07-20T12:05:03;10.00;9.00;6.00
78512;PMS5003;67809;55.034;73.462;2023-07-20T12:07:34;9.00;8.00;6.00
78512;PMS5003;67809;55.034;73.462;2023-07-20T12:10:05;8.25;7.50;5.25
78512;PMS5003;67809;55.034;73.462;2023-07-20T12:12:32;12.00;11.00;8.00
78512;PMS5003;67809;55.034;73.462;2023-07-20T12:17:46;9.00;8.00;5.25
78512;PMS5003;67809;55.034;73.462;2023-07-20T12:20:24;11.00;9.00;7.00
78512;PMS5003;67809;55.034;73.462;2023-07-20T12:22:50;9.00;8.00;6.00
78512;PMS5003;67809;55.034;73.462;2023-07-20T12:25:16;9.25;9.00;6.50
78512;PMS5003;67809;55.034;73.462;2023-07-20T12:27:44;12.00;10.00;7.00
78512;PMS5003;67809;55.034;73.462;2023-07-20T12:30:10;13.00;11.75;8.00
78512;PMS5003;67809;55.034;73.462;2023-07-20T12:32:36;14.00;12.00;8.00
78512;PMS5003;67809;55.034;73.462;2023-07-20T12:35:02;173.00;153.25;87.75
78512;PMS5003;67809;55.034;73.462;2023-07-20T12:37:28;54.75;45.25;28.75
78512;PMS5003;67809;55.034;73.462;2023-07-20T12:39:54;20.50;18.75;13.75
78512;PMS5003;67809;55.034;73.462;2023-07-20T12:42:20;12.75;11.25;8.25
78512;PMS5003;67809;55.034;73.462;2023-07-20T12:44:47;23.00;20.75;14.25
78512;PMS5003;67809;55.034;73.462;2023-07-20T12:47:13;15.00;13.50;9.75
78512;PMS5003;67809;55.034;73.462;2023-07-20T12:49:39;14.25;13.25;9.00
78512;PMS5003;67809;55.034;73.462;2023-07-20T12:52:05;13.00;12.00;8.00
78512;PMS5003;67809;55.034;73.462;2023-07-20T12:54:31;11.25;10.00;7.00
78512;PMS5003;67809;55.034;73.462;2023-07-20T12:56:58;10.00;9.00;7.00
78512;PMS5003;67809;55.034;73.462;2023-07-20T12:59:24;10.00;9.75;7.00
78512;PMS5003;67809;55.034;73.462;2023-07-20T13:01:50;10.50;10.00;7.00
78512;PMS5003;67809;55.034;73.462;2023-07-20T13:04:17;12.00;11.00;8.00
78512;PMS5003;67809;55.034;73.462;2023-07-20T13:06:43;10.00;9.25;6.75
78512;PMS5003;67809;55.034;73.462;2023-07-20T13:09:09;11.75;10.25;8.00
78512;PMS5003;67809;55.034;73.462;2023-07-20T13:11:35;11.25;10.00;7.00
78512;PMS5003;67809;55.034;73.462;2023-07-20T13:14:01;10.00;9.00;6.00
78512;PMS5003;67809;55.034;73.462;2023-07-20T13:16:27;9.00;8.00;6.00
78512;PMS5003;67809;55.034;73.462;2023-07-20T13:18:53;9.50;8.75;6.00
78512;PMS5003;67809;55.034;73.462;2023-07-20T13:21:19;10.00;9.00;6.00
78512;PMS5003;67809;55.034;73.462;2023-07-20T13:23:48;11.33;10.00;6.00
78512;PMS5003;67809;55.034;73.462;2023-07-20T13:26:15;10.75;9.00;7.00
78512;PMS5003;67809;55.034;73.462;2023-07-20T13:28:41;9.00;8.00;6.00
78512;PMS5003;67809;55.034;73.462;2023-07-20T13:31:07;8.00;7.50;5.00
78512;PMS5003;67809;55.034;73.462;2023-07-20T13:33:36;31.00;26.67;17.00
78512;PMS5003;67809;55.034;73.462;2023-07-20T13:36:02;15.00;12.75;8.50
78512;PMS5003;67809;55.034;73.462;2023-07-20T13:38:31;14.00;13.00;9.00
78512;PMS5003;67809;55.034;73.462;2023-07-20T13:40:57;11.75;10.00;7.00
78512;PMS5003;67809;55.034;73.462;2023-07-20T13:43:23;12.75;11.00;7.00
78512;PMS5003;67809;55.034;73.462;2023-07-20T13:45:49;17.00;15.00;10.00
78512;PMS5003;67809;55.034;73.462;2023-07-20T13:48:15;18.50;16.50;11.00
78512;PMS5003;67809;55.034;73.462;2023-07-20T13:50:45;16.50;15.25;10.75
78512;PMS5003;67809;55.034;73.462;2023-07-20T13:53:11;16.00;13.75;9.00
78512;PMS5003;67809;55.034;73.462;2023-07-20T13:55:39;36.75;31.75;21.75
78512;PMS5003;67809;55.034;73.462;2023-07-20T13:58:05;19.00;17.00;12.00
78512;PMS5003;67809;55.034;73.462;2023-07-20T14:00:31;13.00;12.00;9.00
78512;PMS5003;67809;55.034;73.462;2023-07-20T14:02:58;17.00;15.00;10.00
78512;PMS5003;67809;55.034;73.462;2023-07-20T14:05:25;15.00;13.00;10.00
78512;PMS5003;67809;55.034;73.462;2023-07-20T14:07:51;21.00;18.00;12.00
78512;PMS5003;67809;55.034;73.462;2023-07-20T14:10:17;16.00;15.00;10.25